Time;durP1;ratioP1;P1;durP2;ratioP2;P2;SDS_P1;SDS_P2;PMS_P1;PMS_P2;Temp;Humidity;BMP_temperature;BMP_pressure;BME280_temperature;BME280_humidity;BME280_pressure;Samples;Min_cycle;Max_cycle;Signal;HPM_P1;HPM_P2
2024/02/04 00:00:13;;;;;;;;;;;;;;;22.73;35.89;102724.75;4198209;28;19920;-69
2024/02/04 00:02:15;;;;;;;;;;;;;;;22.73;35.88;102725.59;4198611;28;20346;-69
2024/02/04 00:04:16;;;;;;;;;;;;;;;22.73;35.61;102732.78;4198455;28;19947;-69
2024/02/04 00:06:18;;;;;;;;;;;;;;;22.73;35.78;102735.47;4198725;28;19999;-68
2024/02/04 00:08:19;;;;;;;;;;;;;;;22.72;35.68;102729.22;4198630;28;19925;-68
2024/02/04 00:10:21;;;;;;;;;;;;;;;22.74;35.67;102729.16;4198515;28;20011;-68
2024/02/04 00:12:22;;;;;;;;;;;;;;;22.74;35.57;102731.84;4198594;28;19924;-68
2024/02/04 00:14:24;;;;;;;;;;;;;;;22.76;35.58;102732.59;4198125;28;19920;-67
2024/02/04 00:16:25;;;;;;;;;;;;;;;22.75;35.56;102739.81;4197267;28;20434;-68
2024/02/04 00:18:27;;;;;;;;;;;;;;;22.76;35.62;102732.59;4198532;28;19983;-68
2024/02/04 00:20:29;;;;;;;;;;;;;;;22.77;35.48;102740.59;4198308;28;20392;-68
2024/02/04 00:22:31;;;;;;;;;;;;;;;22.76;35.61;102729.94;4198466;28;19920;-68
2024/02/04 00:24:32;;;;;;;;;;;;;;;22.77;35.50;102735.22;4198368;28;19960;-67
2024/02/04 00:26:34;;;;;;;;;;;;;;;22.76;35.56;102732.59;4198230;28;20387;-68
2024/02/04 00:28:35;;;;;;;;;;;;;;;22.75;35.73;102737.13;4198015;28;19924;-68
2024/02/04 00:30:40;;;;;;;;;;;;;;;22.74;35.57;102730.03;4198258;28;20003;-67
2024/02/04 00:32:42;;;;;;;;;;;;;;;22.74;35.58;102729.16;4198331;28;19961;-67
2024/02/04 00:34:43;;;;;;;;;;;;;;;22.73;35.56;102722.91;4198095;28;19955;-67
2024/02/04 00:36:45;;;;;;;;;;;;;;;22.73;35.62;102719.38;4208115;28;19995;-68
2024/02/04 00:38:47;;;;;;;;;;;;;;;22.74;35.54;102719.28;4214732;28;19919;-68
2024/02/04 00:40:48;;;;;;;;;;;;;;;22.75;35.42;102723.72;4214646;28;19927;-68
2024/02/04 00:42:50;;;;;;;;;;;;;;;22.76;35.48;102720.06;4213204;28;19977;-68
2024/02/04 00:44:51;;;;;;;;;;;;;;;22.77;35.78;102728.97;4214681;28;19920;-68
2024/02/04 00:46:53;;;;;;;;;;;;;;;22.77;35.62;102712.88;4214253;28;19931;-68
2024/02/04 00:48:55;;;;;;;;;;;;;;;22.78;35.62;102712.81;4206219;28;19921;-69
2024/02/04 00:50:57;;;;;;;;;;;;;;;22.80;35.48;102715.41;4197945;28;19927;-68
2024/02/04 00:52:58;;;;;;;;;;;;;;;22.78;35.85;102712.81;4197951;28;20358;-69
2024/02/04 00:55:00;;;;;;;;;;;;;;;22.78;35.78;102715.50;4198039;28;19924;-69
2024/02/04 00:57:01;;;;;;;;;;;;;;;22.78;35.55;102717.31;4197326;28;19946;-69
2024/02/04 00:59:03;;;;;;;;;;;;;;;22.77;35.68;102718.25;4197578;28;19926;-69
2024/02/04 01:01:06;;;;;;;;;;;;;;;22.75;35.69;102722.84;4197870;28;19979;-68
2024/02/04 01:03:08;;;;;;;;;;;;;;;22.77;35.51;102726.28;4197717;28;19920;-69
2024/02/04 01:05:09;;;;;;;;;;;;;;;22.77;35.73;102723.63;4197793;28;19920;-69
2024/02/04 01:07:11;;;;;;;;;;;;;;;22.75;35.57;102723.72;4197719;28;19956;-68
2024/02/04 01:09:12;;;;;;;;;;;;;;;22.77;35.45;102716.44;4197760;28;19920;-69
2024/02/04 01:11:14;;;;;;;;;;;;;;;22.77;35.55;102716.44;4197492;28;19927;-69
2024/02/04 01:13:15;;;;;;;;;;;;;;;22.79;35.38;102719.88;4197795;28;20035;-68
2024/02/04 01:15:17;;;;;;;;;;;;;;;22.81;35.50;102726.03;4197721;28;19955;-68
2024/02/04 01:17:19;;;;;;;;;;;;;;;22.82;35.66;102726.94;4197240;28;19921;-69
2024/02/04 01:19:20;;;;;;;;;;;;;;;22.81;35.35;102719.81;4197567;28;19921;-68
2024/02/04 01:21:22;;;;;;;;;;;;;;;22.82;35.40;102726.94;4197465;28;20014;-69
2024/02/04 01:23:23;;;;;;;;;;;;;;;22.80;35.58;102729.69;4196285;28;19924;-69
2024/02/04 01:25:25;;;;;;;;;;;;;;;22.80;35.72;102731.50;4196950;28;19924;-69
2024/02/04 01:27:26;;;;;;;;;;;;;;;22.78;35.68;102726.22;4197499;28;20015;-68
2024/02/04 01:29:28;;;;;;;;;;;;;;;22.78;35.82;102720.00;4197539;28;19920;-69
2024/02/04 01:31:29;;;;;;;;;;;;;;;22.77;35.78;102716.44;4197380;28;19920;-68
2024/02/04 01:33:31;;;;;;;;;;;;;;;22.79;35.72;102713.66;4197525;28;19946;-69
2024/02/04 01:35:33;;;;;;;;;;;;;;;22.80;35.42;102710.91;4197508;28;20011;-69
2024/02/04 01:37:34;;;;;;;;;;;;;;;22.81;35.53;102706.41;4180933;28;20298;-68
2024/02/04 01:39:36;;;;;;;;;;;;;;;22.81;35.59;102701.06;4180866;28;19971;-68
2024/02/04 01:41:38;;;;;;;;;;;;;;;22.83;35.73;102703.63;4180341;28;19921;-68
2024/02/04 01:43:39;;;;;;;;;;;;;;;22.83;35.57;102703.63;4180786;28;20007;-69
2024/02/04 01:45:41;;;;;;;;;;;;;;;22.84;35.35;102700.00;4180843;28;20023;-69
2024/02/04 01:47:42;;;;;;;;;;;;;;;22.84;35.58;102694.66;4180914;28;20286;-69
2024/02/04 01:49:44;;;;;;;;;;;;;;;22.84;35.49;102681.22;4194386;28;19943;-69
2024/02/04 01:51:46;;;;;;;;;;;;;;;22.84;35.47;102675.88;4197191;28;19982;-69
2024/02/04 01:53:48;;;;;;;;;;;;;;;22.83;35.51;102676.81;4197321;28;19920;-68
2024/02/04 01:55:50;;;;;;;;;;;;;;;22.80;35.72;102670.66;4197038;28;20035;-69
2024/02/04 01:57:51;;;;;;;;;;;;;;;22.80;35.55;102665.28;4197296;28;20349;-69
2024/02/04 01:59:56;;;;;;;;;;;;;;;22.80;35.62;102665.28;4200477;28;20334;-68
2024/02/04 02:02:00;;;;;;;;;;;;;;;22.81;35.74;102658.13;4200595;28;19966;-68
2024/02/04 02:04:02;;;;;;;;;;;;;;;22.83;35.39;102666.06;4200643;28;19921;-69
2024/02/04 02:06:05;;;;;;;;;;;;;;;22.84;35.77;102659.75;4200653;28;19921;-68
2024/02/04 02:08:07;;;;;;;;;;;;;;;22.85;35.32;102658.81;4200541;28;20245;-68
2024/02/04 02:10:10;;;;;;;;;;;;;;;22.84;35.45;102657.94;4200215;28;19920;-69
2024/02/04 02:12:12;;;;;;;;;;;;;;;22.85;35.53;102657.00;4200408;28;19927;-68
2024/02/04 02:14:16;;;;;;;;;;;;;;;22.86;35.88;102664.09;4200392;28;19974;-68
2024/02/04 02:16:21;;;;;;;;;;;;;;;22.87;35.50;102651.53;4200308;28;20288;-69
2024/02/04 02:18:37;;;;;;;;;;;;;;;22.86;35.65;102650.66;4200364;28;19931;-69
2024/02/04 02:20:55;;;;;;;;;;;;;;;22.86;35.47;102644.47;4200373;28;19920;-69
2024/02/04 02:23:03;;;;;;;;;;;;;;;22.84;35.73;102639.16;4200333;28;19920;-69
2024/02/04 02:25:04;;;;;;;;;;;;;;;22.83;35.66;102639.25;4199841;28;20387;-69
2024/02/04 02:27:06;;;;;;;;;;;;;;;22.80;35.54;102635.78;4200210;28;19927;-68
2024/02/04 02:29:08;;;;;;;;;;;;;;;22.83;35.52;102652.66;4200295;28;19939;-68
2024/02/04 02:31:10;;;;;;;;;;;;;;;22.83;35.42;102655.34;4200001;28;20437;-69
2024/02/04 02:33:12;;;;;;;;;;;;;;;22.83;35.53;102656.19;4199907;28;20007;-68
2024/02/04 02:35:14;;;;;;;;;;;;;;;22.85;35.39;102653.44;4199966;28;19924;-68
2024/02/04 02:37:29;;;;;;;;;;;;;;;22.85;35.39;102648.09;4214047;28;20096;-68
2024/02/04 02:39:32;;;;;;;;;;;;;;;22.86;35.38;102653.34;4216106;28;20019;-68
2024/02/04 02:41:34;;;;;;;;;;;;;;;22.86;35.53;102653.34;4216383;28;19920;-68
2024/02/04 02:43:39;;;;;;;;;;;;;;;22.88;35.53;102647.91;4216535;28;20458;-69
2024/02/04 02:45:41;;;;;;;;;;;;;;;22.87;35.41;102638.13;4216689;28;20371;-69
2024/02/04 02:47:44;;;;;;;;;;;;;;;22.86;35.62;102639.94;4216656;28;19920;-68
2024/02/04 02:49:46;;;;;;;;;;;;;;;22.87;35.38;102640.78;4201104;28;20003;-68
2024/02/04 02:51:47;;;;;;;;;;;;;;;22.86;35.57;102644.47;4198608;28;19920;-68
2024/02/04 02:53:49;;;;;;;;;;;;;;;22.84;35.59;102641.84;4199219;28;19940;-68
2024/02/04 02:55:55;;;;;;;;;;;;;;;22.83;35.71;102640.09;4199713;28;19943;-68
2024/02/04 02:57:57;;;;;;;;;;;;;;;22.84;35.52;102638.31;4199670;28;20003;-68
2024/02/04 02:59:58;;;;;;;;;;;;;;;22.84;35.35;102632.94;4199588;28;20018;-68
2024/02/04 03:02:00;;;;;;;;;;;;;;;22.86;35.62;102639.94;4198287;28;19920;-68
2024/02/04 03:04:07;;;;;;;;;;;;;;;22.87;35.52;102628.25;4199515;28;19920;-68
2024/02/04 03:06:08;;;;;;;;;;;;;;;22.88;35.41;102631.78;4199577;28;19920;-68
2024/02/04 03:08:10;;;;;;;;;;;;;;;22.89;35.70;102633.53;4199098;28;19924;-68
2024/02/04 03:10:16;;;;;;;;;;;;;;;22.89;35.61;102634.41;4198986;28;20306;-68
2024/02/04 03:12:18;;;;;;;;;;;;;;;22.89;35.44;102633.53;4199695;28;20026;-68
2024/02/04 03:14:20;;;;;;;;;;;;;;;22.88;35.37;102634.47;4199506;28;20011;-68
2024/02/04 03:16:21;;;;;;;;;;;;;;;22.88;35.65;102631.78;4199717;28;19924;-68
2024/02/04 03:18:23;;;;;;;;;;;;;;;22.87;35.47;102638.13;4199493;28;19931;-68
2024/02/04 03:20:24;;;;;;;;;;;;;;;22.86;35.33;102639.94;4199100;28;19921;-68
2024/02/04 03:22:26;;;;;;;;;;;;;;;22.85;35.47;102640.88;4199140;28;19921;-69
2024/02/04 03:24:27;;;;;;;;;;;;;;;22.85;35.42;102640.03;4199374;28;20287;-68
2024/02/04 03:26:34;;;;;;;;;;;;;;;22.86;35.38;102639.09;4199309;28;19920;-68
2024/02/04 03:28:40;;;;;;;;;;;;;;;22.86;35.74;102642.63;4199275;28;19920;-69
2024/02/04 03:30:41;;;;;;;;;;;;;;;22.88;35.40;102646.09;4199270;28;19924;-68
2024/02/04 03:32:43;;;;;;;;;;;;;;;22.89;35.65;102653.19;4199255;28;20379;-68
2024/02/04 03:34:45;;;;;;;;;;;;;;;22.89;35.61;102645.16;4199279;28;19921;-69
2024/02/04 03:36:47;;;;;;;;;;;;;;;22.91;35.52;102640.53;4208729;28;20329;-68
2024/02/04 03:38:49;;;;;;;;;;;;;;;22.92;35.78;102646.78;4215983;28;20337;-68
2024/02/04 03:40:50;;;;;;;;;;;;;;;22.92;35.74;102641.41;4215514;28;19920;-68
2024/02/04 03:42:52;;;;;;;;;;;;;;;22.90;35.52;102628.06;4215841;28;20259;-68
2024/02/04 03:44:54;;;;;;;;;;;;;;;22.89;35.46;102634.41;4215566;28;19927;-69
2024/02/04 03:46:55;;;;;;;;;;;;;;;22.90;35.40;102629.91;4215453;28;19949;-69
2024/02/04 03:48:57;;;;;;;;;;;;;;;22.88;35.56;102631.78;4207141;28;20296;-69
2024/02/04 03:50:58;;;;;;;;;;;;;;;22.87;35.56;102630.94;4198597;28;19950;-68
2024/02/04 03:53:00;;;;;;;;;;;;;;;22.86;35.56;102636.41;4198933;28;19927;-68
2024/02/04 03:55:02;;;;;;;;;;;;;;;22.86;35.81;102629.22;4198908;28;20019;-69
2024/02/04 03:57:04;;;;;;;;;;;;;;;22.87;35.57;102630.94;4198694;28;19974;-68
2024/02/04 03:59:07;;;;;;;;;;;;;;;22.89;35.65;102646.94;4198655;28;19927;-68
2024/02/04 04:01:12;;;;;;;;;;;;;;;22.89;35.68;102647.84;4198714;28;19960;-68
2024/02/04 04:03:14;;;;;;;;;;;;;;;22.90;35.48;102652.22;4198805;28;19974;-68
2024/02/04 04:05:16;;;;;;;;;;;;;;;22.91;35.56;102647.72;4198462;28;19931;-68
2024/02/04 04:07:18;;;;;;;;;;;;;;;22.91;35.51;102653.09;4198342;28;20375;-69
2024/02/04 04:09:19;;;;;;;;;;;;;;;22.91;35.68;102658.47;4198572;28;19966;-68
2024/02/04 04:11:21;;;;;;;;;;;;;;;22.92;35.92;102665.56;4198575;28;20399;-69
2024/02/04 04:13:22;;;;;;;;;;;;;;;22.91;35.52;102662.00;4198537;28;19924;-68
2024/02/04 04:15:24;;;;;;;;;;;;;;;22.91;35.48;102655.78;4198634;28;19920;-69
2024/02/04 04:17:25;;;;;;;;;;;;;;;22.89;35.57;102655.00;4197264;28;19921;-69
2024/02/04 04:19:27;;;;;;;;;;;;;;;22.89;35.52;102646.94;4197931;28;19926;-69
2024/02/04 04:21:28;;;;;;;;;;;;;;;22.89;35.81;102652.31;4198051;28;20011;-69
2024/02/04 04:23:30;;;;;;;;;;;;;;;22.87;35.82;102647.03;4197890;28;19920;-68
2024/02/04 04:25:32;;;;;;;;;;;;;;;22.89;35.63;102650.50;4198368;28;19959;-68
2024/02/04 04:27:34;;;;;;;;;;;;;;;22.90;35.94;102640.63;4198297;28;19966;-68
2024/02/04 04:29:36;;;;;;;;;;;;;;;22.91;35.55;102651.25;4198265;28;19963;-69
2024/02/04 04:31:37;;;;;;;;;;;;;;;22.91;35.86;102643.22;4198293;28;19920;-68
2024/02/04 04:33:38;;;;;;;;;;;;;;;22.93;35.66;102644.00;4198253;28;20334;-68
2024/02/04 04:35:40;;;;;;;;;;;;;;;22.92;35.93;102649.47;4197360;28;19924;-68
2024/02/04 04:37:42;;;;;;;;;;;;;;;22.92;35.63;102636.06;4213698;28;20395;-68
2024/02/04 04:39:43;;;;;;;;;;;;;;;22.92;35.91;102644.09;4196827;28;20039;-68
2024/02/04 04:41:45;;;;;;;;;;;;;;;22.90;35.60;102646.84;4214864;28;19966;-68
2024/02/04 04:43:47;;;;;;;;;;;;;;;22.90;35.46;102635.25;4213308;28;19920;-69
2024/02/04 04:45:48;;;;;;;;;;;;;;;22.89;35.93;102647.84;4214853;28;19920;-69
2024/02/04 04:47:50;;;;;;;;;;;;;;;22.89;35.63;102645.16;4214553;28;19927;-68
2024/02/04 04:49:52;;;;;;;;;;;;;;;22.88;35.93;102655.94;4196818;28;20307;-69
2024/02/04 04:51:53;;;;;;;;;;;;;;;22.88;35.84;102654.16;4197977;28;20348;-68
2024/02/04 04:53:55;;;;;;;;;;;;;;;22.90;35.83;102662.09;4197832;28;19931;-68
2024/02/04 04:55:56;;;;;;;;;;;;;;;22.92;35.86;102665.56;4197965;28;19951;-69
2024/02/04 04:57:58;;;;;;;;;;;;;;;22.91;35.88;102651.25;4197709;28;19927;-67
2024/02/04 05:00:06;;;;;;;;;;;;;;;22.92;35.80;102650.31;4197735;28;19966;-68
2024/02/04 05:02:07;;;;;;;;;;;;;;;22.94;35.93;102644.84;4197962;28;20235;-68
2024/02/04 05:04:09;;;;;;;;;;;;;;;22.93;35.75;102651.16;4197410;28;19963;-68
2024/02/04 05:06:10;;;;;;;;;;;;;;;22.93;35.78;102652.06;4197806;28;19920;-68
2024/02/04 05:08:14;;;;;;;;;;;;;;;22.93;35.88;102648.50;4197658;28;19920;-68
2024/02/04 05:10:15;;;;;;;;;;;;;;;22.93;35.78;102648.50;4197613;28;19920;-68
2024/02/04 05:12:17;;;;;;;;;;;;;;;22.92;35.68;102657.53;4197674;28;19955;-69
2024/02/04 05:14:19;;;;;;;;;;;;;;;22.90;35.75;102654.91;4197549;28;19927;-69
2024/02/04 05:16:21;;;;;;;;;;;;;;;22.89;35.70;102663.94;4197794;28;20007;-68
2024/02/04 05:18:26;;;;;;;;;;;;;;;22.88;35.69;102659.50;4197329;28;19982;-68
2024/02/04 05:20:28;;;;;;;;;;;;;;;22.89;35.90;102660.34;4197396;28;20010;-68
2024/02/04 05:22:30;;;;;;;;;;;;;;;22.90;35.89;102654.03;4197787;28;19940;-68
2024/02/04 05:24:31;;;;;;;;;;;;;;;22.92;35.74;102654.84;4197495;28;20302;-68
2024/02/04 05:26:33;;;;;;;;;;;;;;;22.92;35.68;102657.53;4197545;28;19974;-69
2024/02/04 05:28:35;;;;;;;;;;;;;;;22.93;35.93;102653.84;4197686;28;19920;-68
2024/02/04 05:30:36;;;;;;;;;;;;;;;22.94;36.02;102660.94;4197417;28;19961;-68
2024/02/04 05:32:37;;;;;;;;;;;;;;;22.95;35.66;102652.84;4196066;28;20506;-68
2024/02/04 05:34:39;;;;;;;;;;;;;;;22.96;35.61;102657.22;4197277;28;20607;-67
2024/02/04 05:36:41;;;;;;;;;;;;;;;22.94;35.92;102655.59;4206466;28;19927;-68
2024/02/04 05:38:45;;;;;;;;;;;;;;;22.93;35.99;102661.91;4214312;28;19977;-68
2024/02/04 05:40:46;;;;;;;;;;;;;;;22.92;35.92;102661.06;4213912;28;19941;-68
2024/02/04 05:42:48;;;;;;;;;;;;;;;22.91;35.78;102648.59;4214024;28;19921;-68
2024/02/04 05:44:50;;;;;;;;;;;;;;;22.90;36.01;102654.91;4214340;28;20291;-68
2024/02/04 05:46:51;;;;;;;;;;;;;;;22.90;35.98;102654.03;4213870;28;19942;-68
2024/02/04 05:48:53;;;;;;;;;;;;;;;22.90;36.16;102657.59;4206188;28;19924;-69
2024/02/04 05:50:55;;;;;;;;;;;;;;;22.90;36.08;102662.94;4196090;28;19982;-68
2024/02/04 05:52:57;;;;;;;;;;;;;;;22.91;35.81;102651.25;4197500;28;19920;-69
2024/02/04 05:54:58;;;;;;;;;;;;;;;22.94;35.80;102658.28;4197248;28;19920;-68
2024/02/04 05:57:06;;;;;;;;;;;;;;;22.94;35.65;102642.16;4197245;28;19956;-68
2024/02/04 05:59:08;;;;;;;;;;;;;;;22.95;35.90;102646.59;4197503;28;20012;-69
2024/02/04 06:01:09;;;;;;;;;;;;;;;22.95;35.72;102642.09;4196867;28;19920;-68
2024/02/04 06:03:12;;;;;;;;;;;;;;;22.94;35.89;102645.75;4197257;28;19920;-69
2024/02/04 06:05:14;;;;;;;;;;;;;;;22.95;36.07;102644.78;4197107;28;20366;-69
2024/02/04 06:07:15;;;;;;;;;;;;;;;22.94;35.71;102645.75;4197050;28;20003;-68
2024/02/04 06:09:17;;;;;;;;;;;;;;;22.93;36.08;102640.44;4197353;28;19921;-68
2024/02/04 06:11:19;;;;;;;;;;;;;;;22.93;35.75;102644.00;4197417;28;20291;-68
2024/02/04 06:13:20;;;;;;;;;;;;;;;22.91;36.16;102653.09;4197362;28;20360;-69
2024/02/04 06:15:22;;;;;;;;;;;;;;;22.92;35.93;102657.53;4197098;28;19968;-68
2024/02/04 06:17:23;;;;;;;;;;;;;;;22.92;35.78;102657.53;4197178;28;19924;-68
2024/02/04 06:19:25;;;;;;;;;;;;;;;22.93;36.06;102656.53;4197186;28;19920;-69
2024/02/04 06:21:26;;;;;;;;;;;;;;;22.93;35.92;102656.53;4197022;28;19977;-68
2024/02/04 06:23:28;;;;;;;;;;;;;;;22.94;35.98;102655.59;4197254;28;19974;-69
2024/02/04 06:25:30;;;;;;;;;;;;;;;22.94;36.11;102653.78;4197327;28;20379;-69
2024/02/04 06:27:31;;;;;;;;;;;;;;;22.94;35.99;102653.78;4197183;28;19926;-68
2024/02/04 06:29:33;;;;;;;;;;;;;;;22.94;35.79;102664.53;4197168;28;19928;-68
2024/02/04 06:31:35;;;;;;;;;;;;;;;22.94;35.97;102661.84;4196567;28;19974;-68
2024/02/04 06:33:37;;;;;;;;;;;;;;;22.94;35.80;102661.84;4197370;28;19920;-68
2024/02/04 06:35:39;;;;;;;;;;;;;;;22.94;35.95;102667.22;4197493;28;19920;-68
2024/02/04 06:37:40;;;;;;;;;;;;;;;22.93;35.82;102661.91;4213843;28;19970;-68
2024/02/04 06:39:42;;;;;;;;;;;;;;;22.93;35.85;102656.53;4213557;28;20338;-69
2024/02/04 06:41:43;;;;;;;;;;;;;;;22.91;35.82;102656.63;4213602;28;19924;-68
2024/02/04 06:43:46;;;;;;;;;;;;;;;22.91;35.72;102663.84;4213778;28;19920;-69
2024/02/04 06:45:47;;;;;;;;;;;;;;;22.89;35.82;102663.03;4214539;28;19924;-69
2024/02/04 06:47:49;;;;;;;;;;;;;;;22.91;35.76;102669.19;4216818;28;19973;-68
2024/02/04 06:49:51;;;;;;;;;;;;;;;22.93;35.79;102670.84;4200728;28;19920;-69
2024/02/04 06:51:56;;;;;;;;;;;;;;;22.94;35.80;102669.00;4199959;28;19924;-69
2024/02/04 06:53:58;;;;;;;;;;;;;;;22.94;36.04;102666.31;4199972;28;19974;-69
2024/02/04 06:56:00;;;;;;;;;;;;;;;22.95;35.71;102660.88;4199393;28;19959;-68
2024/02/04 06:58:01;;;;;;;;;;;;;;;22.95;35.72;102663.56;4199926;28;20422;-68
2024/02/04 07:00:07;;;;;;;;;;;;;;;22.95;35.80;102658.22;4199417;28;19921;-68
2024/02/04 07:02:09;;;;;;;;;;;;;;;22.96;35.80;102661.75;4199678;28;20011;-68
2024/02/04 07:04:10;;;;;;;;;;;;;;;22.95;35.68;102662.69;4199726;28;20007;-69
2024/02/04 07:06:12;;;;;;;;;;;;;;;22.94;35.71;102663.63;4198490;28;19920;-68
2024/02/04 07:08:14;;;;;;;;;;;;;;;22.92;35.68;102652.16;4199486;28;19924;-68
2024/02/04 07:10:16;;;;;;;;;;;;;;;22.92;35.74;102652.16;4199662;28;19978;-68
2024/02/04 07:12:18;;;;;;;;;;;;;;;22.92;35.68;102657.53;4199687;28;19971;-69
2024/02/04 07:14:19;;;;;;;;;;;;;;;22.93;35.98;102661.91;4199326;28;19921;-68
2024/02/04 07:16:21;;;;;;;;;;;;;;;22.93;36.00;102656.53;4199369;28;19920;-69
2024/02/04 07:18:23;;;;;;;;;;;;;;;22.94;35.86;102661.84;4199471;28;19921;-68
2024/02/04 07:20:24;;;;;;;;;;;;;;;22.95;35.85;102668.94;4199497;28;19924;-68
2024/02/04 07:22:26;;;;;;;;;;;;;;;22.96;35.60;102670.63;4199479;28;19920;-68
2024/02/04 07:24:27;;;;;;;;;;;;;;;22.98;35.55;102665.22;4199369;28;20028;-68
2024/02/04 07:26:29;;;;;;;;;;;;;;;22.97;35.59;102658.13;4199282;28;20303;-68
2024/02/04 07:28:30;;;;;;;;;;;;;;;22.97;35.79;102661.66;4198851;28;19920;-68
2024/02/04 07:30:32;;;;;;;;;;;;;;;22.97;35.78;102671.53;4199376;28;19927;-68
2024/02/04 07:32:35;;;;;;;;;;;;;;;22.96;35.67;102669.78;4199234;28;20108;-68
2024/02/04 07:34:38;;;;;;;;;;;;;;;22.95;35.96;102668.94;4199415;28;19927;-68
2024/02/04 07:36:39;;;;;;;;;;;;;;;22.94;35.66;102671.69;4208183;28;19994;-68
2024/02/04 07:38:41;;;;;;;;;;;;;;;22.93;35.73;102672.63;4215943;28;20398;-69
2024/02/04 07:40:43;;;;;;;;;;;;;;;22.91;35.80;102672.72;4215522;28;19924;-68
2024/02/04 07:42:44;;;;;;;;;;;;;;;22.92;35.81;102673.63;4215636;28;19956;-68
2024/02/04 07:44:46;;;;;;;;;;;;;;;22.93;35.82;102675.31;4215590;28;19920;-68
2024/02/04 07:46:47;;;;;;;;;;;;;;;22.93;35.79;102672.63;4215789;28;19919;-68
2024/02/04 07:48:49;;;;;;;;;;;;;;;22.95;35.79;102677.00;4208340;28;19955;-68
2024/02/04 07:50:50;;;;;;;;;;;;;;;22.96;35.81;102669.78;4198996;28;19920;-68
2024/02/04 07:52:52;;;;;;;;;;;;;;;22.96;35.96;102673.31;4198955;28;20280;-68
2024/02/04 07:54:54;;;;;;;;;;;;;;;22.96;35.90;102665.28;4198754;28;20006;-68
2024/02/04 07:56:56;;;;;;;;;;;;;;;22.96;35.61;102670.63;4198205;28;19920;-69
2024/02/04 07:58:57;;;;;;;;;;;;;;;22.96;35.65;102670.63;4198781;28;19927;-68
2024/02/04 08:00:59;;;;;;;;;;;;;;;22.97;35.79;102674.22;4198810;28;19920;-69
2024/02/04 08:03:00;;;;;;;;;;;;;;;22.95;35.68;102679.66;4198588;28;20011;-68
2024/02/04 08:05:02;;;;;;;;;;;;;;;22.95;35.62;102677.00;4198889;28;20400;-68
2024/02/04 08:07:04;;;;;;;;;;;;;;;22.94;35.69;102690.47;4198547;28;20446;-69
2024/02/04 08:09:06;;;;;;;;;;;;;;;22.94;35.56;102682.41;4198564;28;19921;-68
2024/02/04 08:11:08;;;;;;;;;;;;;;;22.93;35.60;102684.25;4198679;28;20245;-68
2024/02/04 08:13:09;;;;;;;;;;;;;;;22.95;35.63;102692.22;4198063;28;19952;-68
2024/02/04 08:15:11;;;;;;;;;;;;;;;22.96;35.72;102693.94;4198653;28;19920;-68
2024/02/04 08:17:13;;;;;;;;;;;;;;;22.96;35.98;102685.88;4198429;28;19921;-68
2024/02/04 08:19:15;;;;;;;;;;;;;;;22.98;35.64;102694.72;4198571;28;19970;-68
2024/02/04 08:21:16;;;;;;;;;;;;;;;22.96;35.70;102683.22;4198254;28;19924;-68
2024/02/04 08:23:18;;;;;;;;;;;;;;;22.97;35.63;102690.31;4198333;28;19927;-68
2024/02/04 08:25:19;;;;;;;;;;;;;;;22.98;35.64;102684.84;4198391;28;19966;-68
2024/02/04 08:27:21;;;;;;;;;;;;;;;22.97;35.71;102680.44;4197954;28;19992;-68
2024/02/04 08:29:22;;;;;;;;;;;;;;;22.96;35.55;102689.44;4198503;28;20314;-68
2024/02/04 08:31:24;;;;;;;;;;;;;;;22.96;35.64;102689.44;4198419;28;19938;-68
2024/02/04 08:33:26;;;;;;;;;;;;;;;22.95;35.70;102687.72;4198020;28;20395;-67
2024/02/04 08:35:27;;;;;;;;;;;;;;;22.93;35.57;102681.56;4198319;28;19920;-66
2024/02/04 08:37:29;;;;;;;;;;;;;;;22.92;35.88;102690.56;4212533;28;19966;-68
2024/02/04 08:39:30;;;;;;;;;;;;;;;22.93;35.68;102692.31;4215007;28;19920;-68
2024/02/04 08:41:32;;;;;;;;;;;;;;;22.95;35.69;102689.53;4214068;28;20402;-69
2024/02/04 08:43:33;;;;;;;;;;;;;;;22.95;35.86;102682.34;4214692;28;19974;-69
2024/02/04 08:45:35;;;;;;;;;;;;;;;22.97;35.64;102682.25;4214713;28;19923;-69
2024/02/04 08:47:36;;;;;;;;;;;;;;;22.97;35.64;102671.53;4214845;28;19920;-69
2024/02/04 08:49:38;;;;;;;;;;;;;;;22.98;35.46;102684.84;4199069;28;19924;-68
2024/02/04 08:51:40;;;;;;;;;;;;;;;23.00;35.75;102691.94;4197921;28;19921;-69
2024/02/04 08:53:42;;;;;;;;;;;;;;;23.00;35.59;102683.91;4197928;28;19920;-69
2024/02/04 08:55:44;;;;;;;;;;;;;;;23.00;35.44;102687.44;4197557;28;20002;-68
2024/02/04 08:57:47;;;;;;;;;;;;;;;22.98;35.58;102686.69;4197730;28;19931;-69
2024/02/04 08:59:49;;;;;;;;;;;;;;;22.97;35.84;102693.84;4197975;28;19943;-69
2024/02/04 09:01:50;;;;;;;;;;;;;;;22.97;35.85;102688.47;4197759;28;19927;-68
2024/02/04 09:03:52;;;;;;;;;;;;;;;22.95;35.59;102692.22;4196722;28;20061;-69
2024/02/04 09:05:54;;;;;;;;;;;;;;;22.94;35.61;102694.03;4197816;28;19927;-69
2024/02/04 09:07:56;;;;;;;;;;;;;;;22.95;35.62;102692.22;4197408;28;20007;-69
2024/02/04 09:09:58;;;;;;;;;;;;;;;22.96;35.97;102688.56;4197265;28;19920;-68
2024/02/04 09:11:59;;;;;;;;;;;;;;;22.97;35.55;102685.78;4197608;28;20307;-69
2024/02/04 09:14:01;;;;;;;;;;;;;;;22.99;35.71;102696.47;4197696;28;20363;-68
2024/02/04 09:16:04;;;;;;;;;;;;;;;23.01;35.69;102691.00;4197651;28;19920;-69
2024/02/04 09:18:06;;;;;;;;;;;;;;;23.02;35.64;102698.94;4197738;28;20359;-69
2024/02/04 09:20:08;;;;;;;;;;;;;;;23.02;35.52;102696.28;4197706;28;20368;-69
2024/02/04 09:22:10;;;;;;;;;;;;;;;23.02;35.89;102698.94;4197540;28;19966;-69
2024/02/04 09:24:12;;;;;;;;;;;;;;;23.03;35.56;102689.97;4196059;28;19920;-69
2024/02/04 09:26:14;;;;;;;;;;;;;;;23.03;35.64;102695.31;4197429;28;19926;-69
2024/02/04 09:28:20;;;;;;;;;;;;;;;23.01;35.60;102702.59;4197564;28;19926;-69
2024/02/04 09:30:21;;;;;;;;;;;;;;;23.01;35.84;102702.59;4197500;28;19920;-69
2024/02/04 09:32:23;;;;;;;;;;;;;;;23.00;35.54;102700.84;4197477;28;19954;-69
2024/02/04 09:34:25;;;;;;;;;;;;;;;22.98;35.59;102706.31;4197620;28;19920;-68
2024/02/04 09:36:27;;;;;;;;;;;;;;;22.98;35.55;102703.63;4204586;28;20395;-69
2024/02/04 09:38:28;;;;;;;;;;;;;;;23.00;35.90;102697.31;4211079;28;19920;-69
2024/02/04 09:40:30;;;;;;;;;;;;;;;23.01;35.82;102699.91;4195400;28;19920;-68
2024/02/04 09:42:32;;;;;;;;;;;;;;;23.02;35.63;102692.75;4194786;28;19974;-68
2024/02/04 09:44:35;;;;;;;;;;;;;;;23.03;35.55;102692.63;4196987;28;20035;-68
2024/02/04 09:46:37;;;;;;;;;;;;;;;23.04;35.40;102690.81;4197114;28;20383;-67
2024/02/04 09:48:39;;;;;;;;;;;;;;;23.05;35.73;102679.13;4196914;28;19970;-67
2024/02/04 09:50:41;;;;;;;;;;;;;;;23.05;35.75;102692.53;4197228;28;20018;-68
2024/02/04 09:52:48;;;;;;;;;;;;;;;23.05;35.48;102693.44;4197441;28;19920;-67
2024/02/04 09:54:52;;;;;;;;;;;;;;;23.04;35.37;102693.50;4196802;28;19920;-67
2024/02/04 09:56:54;;;;;;;;;;;;;;;23.03;35.45;102681.91;4197542;28;19999;-67
2024/02/04 09:58:57;;;;;;;;;;;;;;;23.03;35.53;102681.06;4197252;28;19952;-68
2024/02/04 10:01:00;;;;;;;;;;;;;;;23.01;35.75;102685.63;4197061;28;19977;-67
2024/02/04 10:03:02;;;;;;;;;;;;;;;23.00;35.40;102684.75;4197148;28;20350;-66
2024/02/04 10:05:04;;;;;;;;;;;;;;;23.01;35.62;102677.59;4197179;28;20369;-67
2024/02/04 10:07:06;;;;;;;;;;;;;;;23.00;35.48;102676.69;4197254;28;20016;-66
2024/02/04 10:09:08;;;;;;;;;;;;;;;23.01;35.45;102669.53;4196833;28;19932;-66
2024/02/04 10:11:10;;;;;;;;;;;;;;;23.03;35.46;102671.16;4197196;28;19920;-67
2024/02/04 10:13:13;;;;;;;;;;;;;;;23.05;35.39;102673.75;4197066;28;19928;-67
2024/02/04 10:15:16;;;;;;;;;;;;;;;23.05;35.39;102673.75;4197207;28;20282;-68
2024/02/04 10:17:20;;;;;;;;;;;;;;;23.05;35.42;102674.63;4197050;28;19940;-68
2024/02/04 10:19:24;;;;;;;;;;;;;;;23.05;35.48;102682.69;4196930;28;19928;-67
2024/02/04 10:21:25;;;;;;;;;;;;;;;23.05;35.81;102674.63;4199173;28;19934;-68
2024/02/04 10:23:27;;;;;;;;;;;;;;;23.06;35.42;102678.19;4199931;28;19963;-68
2024/02/04 10:25:29;;;;;;;;;;;;;;;23.05;35.46;102680.00;4200189;28;19924;-68